createdAt,value
2023-02-22T01:46:26.637Z,37.40
2023-02-22T01:49:12.990Z,37.03
2023-02-22T01:52:40.147Z,36.89
2023-02-22T01:57:31.044Z,36.96
2023-02-22T02:00:24.978Z,36.62
2023-02-22T02:04:04.912Z,36.52
2023-02-22T02:06:52.451Z,36.46
2023-02-22T02:10:19.154Z,36.58
2023-02-22T02:13:14.409Z,36.35
2023-02-22T02:18:25.182Z,36.59
2023-02-22T02:27:24.551Z,36.50
2023-02-22T03:01:07.617Z,36.63
2023-02-22T03:21:20.699Z,35.93
2023-02-22T03:40:25.817Z,35.49
2023-02-22T03:44:41.613Z,35.30
2023-02-22T03:49:01.930Z,35.48
2023-02-22T03:53:58.336Z,35.64
2023-02-22T03:58:19.913Z,35.47
2023-02-22T04:01:16.571Z,35.40
2023-02-22T04:13:24.746Z,35.77
2023-02-22T04:25:57.340Z,35.90
2023-02-22T04:29:36.892Z,35.53
2023-02-22T04:37:18.013Z,35.36
2023-02-22T04:51:25.918Z,35.11
2023-02-22T05:03:21.459Z,34.35
2023-02-22T05:06:23.665Z,34.20
2023-02-22T05:09:04.091Z,33.98
2023-02-22T05:11:53.569Z,33.88
2023-02-22T05:15:40.040Z,34.02
2023-02-22T05:18:13.482Z,33.79
2023-02-22T05:21:24.834Z,34.00
2023-02-22T05:24:45.394Z,33.90
2023-02-22T05:27:21.611Z,33.58
2023-02-22T05:29:56.902Z,33.30
2023-02-22T05:32:48.068Z,33.20
2023-02-22T05:35:24.060Z,33.02
2023-02-22T05:38:03.909Z,32.94
2023-02-22T05:40:53.843Z,33.06
2023-02-22T05:43:25.645Z,33.51
2023-02-22T05:46:10.370Z,33.05
2023-02-22T05:49:05.739Z,33.03
2023-02-22T05:51:43.303Z,33.07
2023-02-22T05:54:29.637Z,33.15
2023-02-22T05:57:30.724Z,34.18
2023-02-22T06:00:46.092Z,33.55
2023-02-22T06:03:25.406Z,33.34
2023-02-22T06:06:41.851Z,33.21
2023-02-22T06:09:25.116Z,32.92
2023-02-22T06:12:43.461Z,33.76
2023-02-22T06:15:41.137Z,32.99
2023-02-22T06:18:16.720Z,33.54
2023-02-22T06:20:53.364Z,33.74
2023-02-22T06:23:43.471Z,33.63
2023-02-22T06:26:31.156Z,32.59
2023-02-22T06:29:09.088Z,33.19
2023-02-22T06:31:50.967Z,32.28
2023-02-22T06:34:35.345Z,32.19
2023-02-22T06:37:06.892Z,32.10
2023-02-22T06:39:39.617Z,31.93
2023-02-22T06:42:17.602Z,31.86
2023-02-22T06:45:24.326Z,31.83
2023-02-22T06:48:00.585Z,31.72
2023-02-22T06:50:49.570Z,31.71
2023-02-22T06:53:25.649Z,31.66
2023-02-22T06:56:07.570Z,31.68
2023-02-22T06:58:40.303Z,31.58
2023-02-22T07:01:11.793Z,31.51
2023-02-22T07:03:44.670Z,31.49
2023-02-22T07:06:19.416Z,31.37
2023-02-22T07:08:53.669Z,31.30
2023-02-22T07:11:47.594Z,31.33
2023-02-22T07:14:41.660Z,31.25
2023-02-22T07:17:29.360Z,31.33
2023-02-22T07:20:21.544Z,31.36
2023-02-22T07:23:09.848Z,32.19
2023-02-22T07:25:56.842Z,31.44
2023-02-22T07:28:37.945Z,31.19
2023-02-22T07:31:16.600Z,31.03
2023-02-22T07:34:06.076Z,30.93
2023-02-22T07:36:44.272Z,30.97
2023-02-22T07:39:15.094Z,30.82
2023-02-22T07:41:46.130Z,31.48
2023-02-22T07:44:29.406Z,30.83
2023-02-22T07:47:18.572Z,30.79
2023-02-22T07:49:50.384Z,30.73
2023-02-22T07:52:24.904Z,30.87
2023-02-22T07:55:08.670Z,30.72
2023-02-22T07:57:48.571Z,30.66
2023-02-22T08:00:41.568Z,30.67
2023-02-22T08:03:35.563Z,30.60
2023-02-22T08:06:17.271Z,30.59
2023-02-22T08:11:47.902Z,30.44
2023-02-22T08:14:20.162Z,30.24
2023-02-22T08:16:53.237Z,30.17
2023-02-22T08:19:32.639Z,30.28
2023-02-22T08:22:09.504Z,30.26
2023-02-22T08:24:53.706Z,30.26
2023-02-22T08:27:37.259Z,30.31
2023-02-22T08:30:12.347Z,30.22
2023-02-22T08:32:45.200Z,30.15
2023-02-22T08:35:24.563Z,30.25
2023-02-22T08:38:08.948Z,30.17
2023-02-22T08:40:44.751Z,30.19
2023-02-22T08:43:19.752Z,31.07
2023-02-22T08:45:56.867Z,30.43
2023-02-22T08:48:39.286Z,30.21
2023-02-22T08:51:13.545Z,30.08
2023-02-22T08:53:54.979Z,30.02
2023-02-22T08:56:48.091Z,29.95
2023-02-22T08:59:19.842Z,29.95
2023-02-22T09:01:49.636Z,29.83
2023-02-22T09:04:32.964Z,29.82
2023-02-22T09:07:13.485Z,29.89
2023-02-22T09:09:48.752Z,29.91
2023-02-22T09:12:32.976Z,29.84
2023-02-22T09:15:16.549Z,29.88
2023-02-22T09:17:49.541Z,29.84
2023-02-22T09:20:31.398Z,29.79
2023-02-22T09:23:21.599Z,29.91
2023-02-22T09:26:01.466Z,29.89
2023-02-22T09:28:47.625Z,29.89
2023-02-22T09:31:25.133Z,29.92
2023-02-22T09:33:56.691Z,29.89
2023-02-22T09:36:53.158Z,29.96
2023-02-22T09:39:24.612Z,29.95
2023-02-22T09:42:07.956Z,29.95
2023-02-22T09:44:54.837Z,30.10
2023-02-22T09:47:35.639Z,30.19
2023-02-22T09:50:33.968Z,30.24
2023-02-22T09:53:41.388Z,30.31
2023-02-22T09:56:22.275Z,30.30
2023-02-22T09:59:10.465Z,30.24
2023-02-22T10:01:49.450Z,30.32
2023-02-22T10:04:55.928Z,30.49
2023-02-22T10:08:11.716Z,30.60
2023-02-22T10:11:13.586Z,30.50
2023-02-22T10:14:11.999Z,30.58
2023-02-22T10:17:12.717Z,30.49
2023-02-22T10:20:19.678Z,30.56
2023-02-22T10:23:17.458Z,30.77
2023-02-22T10:26:00.363Z,30.55
2023-02-22T10:29:02.396Z,30.47
2023-02-22T10:32:04.166Z,30.43
2023-02-22T10:35:07.794Z,30.51
2023-02-22T10:37:47.793Z,30.54
2023-02-22T10:40:40.659Z,30.46
2023-02-22T10:43:16.834Z,30.58
2023-02-22T10:46:04.701Z,30.61
2023-02-22T10:48:42.057Z,30.71
2023-02-22T10:51:17.887Z,30.70
2023-02-22T10:54:23.934Z,30.93
2023-02-22T10:57:18.989Z,30.90
2023-02-22T10:59:49.273Z,30.98
2023-02-22T11:02:40.603Z,31.06
2023-02-22T11:05:39.274Z,31.02
2023-02-22T11:08:19.854Z,31.01
2023-02-22T11:11:16.156Z,31.00
2023-02-22T11:14:19.959Z,31.08
2023-02-22T11:20:41.655Z,31.36
2023-02-22T11:23:33.402Z,31.27
2023-02-22T11:26:16.069Z,31.23
2023-02-22T11:28:56.726Z,31.27
2023-02-22T11:31:48.576Z,31.33
2023-02-22T11:34:45.870Z,31.42
2023-02-22T11:37:37.891Z,31.54
2023-02-22T11:40:52.707Z,31.41
2023-02-22T11:43:48.131Z,31.61
2023-02-22T11:46:21.988Z,31.58
2023-02-22T11:49:24.675Z,31.59
2023-02-22T11:52:48.056Z,31.83
2023-02-22T11:55:44.329Z,31.67
2023-02-22T11:58:52.039Z,31.79
2023-02-22T12:01:40.244Z,31.84
2023-02-22T12:04:40.074Z,31.70
2023-02-22T12:07:48.057Z,31.85
2023-02-22T12:10:35.887Z,31.94
2023-02-22T12:13:34.166Z,31.97
2023-02-22T12:16:10.138Z,32.10
2023-02-22T12:19:05.143Z,32.13
2023-02-22T12:21:49.862Z,32.33
2023-02-22T12:24:57.927Z,32.40
2023-02-22T12:28:18.995Z,32.56
2023-02-22T12:31:25.905Z,32.71
2023-02-22T12:34:36.273Z,32.73
2023-02-22T12:37:29.863Z,32.67
2023-02-22T12:40:39.662Z,32.73
2023-02-22T12:43:56.221Z,32.99
2023-02-22T12:46:53.205Z,32.97
2023-02-22T12:49:56.338Z,32.97
2023-02-22T12:52:56.516Z,32.95
2023-02-22T12:55:46.571Z,33.03
2023-02-22T12:58:47.677Z,33.04
2023-02-22T13:01:26.201Z,33.04
2023-02-22T13:04:48.158Z,33.36
2023-02-22T13:07:20.781Z,33.25
2023-02-22T13:11:17.588Z,33.48
2023-02-22T13:14:16.507Z,33.68
2023-02-22T13:17:04.702Z,33.48
2023-02-22T13:20:16.165Z,33.64
2023-02-22T13:23:07.557Z,33.66
2023-02-22T13:29:48.928Z,34.01
2023-02-22T13:32:25.197Z,34.91
2023-02-22T13:36:08.052Z,34.41
2023-02-22T13:39:17.069Z,34.19
2023-02-22T13:42:49.160Z,34.41
2023-02-22T13:46:12.409Z,34.42
2023-02-22T13:49:25.764Z,34.33
2023-02-22T13:52:49.549Z,34.44
2023-02-22T13:55:40.825Z,34.40
2023-02-22T13:58:24.642Z,34.33
2023-02-22T14:04:52.082Z,34.60
2023-02-22T14:07:29.250Z,34.40
2023-02-22T14:10:47.614Z,34.62
2023-02-22T14:13:32.732Z,34.55
2023-02-22T14:16:11.815Z,34.41
2023-02-22T14:18:53.252Z,34.47
2023-02-22T14:21:25.939Z,34.49
2023-02-22T14:24:17.112Z,34.57
2023-02-22T14:27:18.052Z,34.64
2023-02-22T14:29:57.506Z,34.64
2023-02-22T14:32:37.465Z,34.62
2023-02-22T14:35:36.038Z,34.74
2023-02-22T14:38:24.335Z,34.86
2023-02-22T14:41:01.966Z,34.77
2023-02-22T14:43:42.901Z,34.88
2023-02-22T14:46:35.701Z,34.91
2023-02-22T14:49:20.995Z,34.93
2023-02-22T14:52:21.493Z,35.07
2023-02-22T14:55:24.326Z,35.18
2023-02-22T14:58:31.811Z,35.20
2023-02-22T15:01:27.274Z,35.17
2023-02-22T15:04:25.589Z,35.09
2023-02-22T15:07:23.918Z,34.97
2023-02-22T15:10:08.677Z,34.91
2023-02-22T15:12:55.926Z,35.07
2023-02-22T15:15:52.988Z,35.19
2023-02-22T15:18:53.753Z,35.07
2023-02-22T15:21:33.801Z,35.05
2023-02-22T15:24:12.176Z,34.98
2023-02-22T15:27:02.562Z,35.02
2023-02-22T15:29:45.505Z,35.01
2023-02-22T15:32:37.386Z,34.99
2023-02-22T15:35:17.574Z,34.94
2023-02-22T15:38:13.335Z,34.96
2023-02-22T15:40:52.810Z,34.90
2023-02-22T15:43:36.161Z,34.81
2023-02-22T15:46:12.758Z,34.75
2023-02-22T15:48:45.908Z,34.71
2023-02-22T15:51:21.729Z,34.69
2023-02-22T15:53:55.768Z,34.68
2023-02-22T15:56:37.529Z,34.65
2023-02-22T15:59:35.155Z,34.78
2023-02-22T16:02:08.258Z,34.84
2023-02-22T16:04:48.536Z,34.67
2023-02-22T16:07:46.143Z,34.72
2023-02-22T16:10:40.708Z,34.84
2023-02-22T16:13:45.420Z,34.86
2023-02-22T16:16:49.014Z,34.85
2023-02-22T16:19:56.144Z,34.97
2023-02-22T16:22:50.046Z,34.95
2023-02-22T16:25:36.826Z,34.97
2023-02-22T16:28:37.106Z,35.24
2023-02-22T16:31:12.123Z,35.17
2023-02-22T16:33:48.419Z,35.06
2023-02-22T16:36:24.306Z,35.03
2023-02-22T16:38:53.431Z,35.01
2023-02-22T16:41:32.361Z,35.06
2023-02-22T16:44:12.399Z,35.07
2023-02-22T16:46:47.722Z,35.08
2023-02-22T16:49:17.996Z,35.10
2023-02-22T16:52:17.947Z,35.45
2023-02-22T16:54:52.103Z,35.33
2023-02-22T16:57:36.320Z,35.33
2023-02-22T17:00:36.120Z,35.50
2023-02-22T17:03:20.785Z,35.55
2023-02-22T17:05:55.875Z,35.52
2023-02-22T17:08:46.102Z,35.64
2023-02-22T17:11:20.160Z,35.56
2023-02-22T17:13:54.012Z,35.64
2023-02-22T17:16:27.668Z,35.63
2023-02-22T17:19:09.509Z,35.79
2023-02-22T17:21:44.091Z,35.87
2023-02-22T17:24:25.803Z,36.00
2023-02-22T17:27:05.753Z,36.24
2023-02-22T17:29:37.274Z,36.27
2023-02-22T17:32:14.134Z,36.36
2023-02-22T17:34:45.275Z,36.48
2023-02-22T17:37:19.576Z,36.47
2023-02-22T17:39:50.114Z,36.42
2023-02-22T17:42:32.646Z,36.45
2023-02-22T17:45:05.975Z,36.63
2023-02-22T17:47:37.504Z,36.76
2023-02-22T17:50:21.239Z,36.83
2023-02-22T17:52:54.052Z,37.01
2023-02-22T17:55:32.359Z,37.06
2023-02-22T17:58:32.655Z,37.18
2023-02-22T18:01:26.050Z,37.22
2023-02-22T18:04:08.028Z,37.35
2023-02-22T18:06:44.957Z,37.50
2023-02-22T18:09:22.162Z,37.59
2023-02-22T18:11:55.607Z,37.60
2023-02-22T18:14:32.725Z,37.53
2023-02-22T18:17:07.602Z,37.55
2023-02-22T18:19:40.556Z,37.60
2023-02-22T18:22:40.949Z,37.78
2023-02-22T18:25:35.876Z,38.00
2023-02-22T18:28:23.450Z,38.05
2023-02-22T18:31:16.750Z,38.25
2023-02-22T18:33:53.545Z,38.08
2023-02-22T18:36:37.733Z,38.15
2023-02-22T18:39:16.058Z,38.37
2023-02-22T18:41:49.392Z,38.44
2023-02-22T18:44:25.682Z,38.49
2023-02-22T18:47:07.953Z,38.58
2023-02-22T18:50:13.858Z,38.70
2023-02-22T18:57:20.414Z,38.61
2023-02-22T18:59:52.871Z,38.36
2023-02-22T19:02:32.198Z,38.26
2023-02-22T19:05:07.906Z,38.32
2023-02-22T19:07:41.771Z,38.33
2023-02-22T19:10:15.519Z,38.28
2023-02-22T19:12:48.305Z,38.26
2023-02-22T19:15:26.149Z,38.45
2023-02-22T19:18:09.730Z,38.52
2023-02-22T19:21:03.934Z,38.74
2023-02-22T19:23:40.920Z,38.53
2023-02-22T19:26:13.794Z,38.31
2023-02-22T19:28:48.368Z,38.24
2023-02-22T19:31:34.259Z,38.32
2023-02-22T19:34:18.067Z,38.27
2023-02-22T19:36:52.282Z,38.33
2023-02-22T19:42:09.133Z,38.22
2023-02-22T19:44:43.818Z,38.28
2023-02-22T19:47:15.232Z,38.21
2023-02-22T19:49:47.912Z,38.15
2023-02-22T19:52:20.208Z,38.02
2023-02-22T19:54:52.241Z,38.03
2023-02-22T19:57:25.333Z,37.90
2023-02-22T20:00:15.917Z,37.95
2023-02-22T20:02:50.587Z,37.90
2023-02-22T20:05:22.106Z,37.92
2023-02-22T20:07:56.184Z,37.97
2023-02-22T20:10:37.413Z,38.06
2023-02-22T20:13:13.172Z,38.00
2023-02-22T20:15:48.554Z,38.14
2023-02-22T20:18:21.862Z,38.16
2023-02-22T20:20:56.403Z,38.09
2023-02-22T20:23:41.650Z,38.10
2023-02-22T20:26:30.230Z,38.13
2023-02-22T20:29:13.393Z,38.12
2023-02-22T20:31:50.832Z,37.96
2023-02-22T20:34:26.069Z,37.90
2023-02-22T20:37:06.032Z,38.00
2023-02-22T20:39:40.037Z,37.98
2023-02-22T20:42:17.436Z,38.07
2023-02-22T20:44:51.816Z,38.27
2023-02-22T20:47:24.559Z,38.06
2023-02-22T20:49:55.925Z,38.10
2023-02-22T20:52:37.250Z,38.24
2023-02-22T20:55:14.086Z,39.72
2023-02-22T20:57:47.637Z,38.95
2023-02-22T21:00:20.507Z,38.57
2023-02-22T21:02:52.126Z,38.32
2023-02-22T21:05:23.253Z,38.23
2023-02-22T21:08:01.284Z,38.21
2023-02-22T21:10:52.461Z,38.24
2023-02-22T21:13:23.780Z,38.07
2023-02-22T21:15:56.005Z,37.90
2023-02-22T21:18:38.945Z,37.78
2023-02-22T21:21:14.233Z,37.74
2023-02-22T21:23:52.078Z,37.79
2023-02-22T21:26:36.010Z,37.81
2023-02-22T21:29:12.759Z,37.83
2023-02-22T21:31:43.905Z,37.86
2023-02-22T21:34:20.431Z,37.82
2023-02-22T21:36:51.849Z,37.79
2023-02-22T21:39:23.591Z,37.84
2023-02-22T21:41:53.594Z,37.96
2023-02-22T21:44:35.590Z,38.08
2023-02-22T21:47:06.246Z,38.13
2023-02-22T21:49:42.049Z,38.16
2023-02-22T21:52:16.936Z,38.19
2023-02-22T21:54:50.339Z,38.27
2023-02-22T21:57:24.418Z,38.25
2023-02-22T21:59:57.091Z,38.24
2023-02-22T22:02:44.023Z,38.37
2023-02-22T22:05:25.319Z,38.36
2023-02-22T22:08:25.833Z,38.26
2023-02-22T22:11:05.893Z,38.24
2023-02-22T22:13:42.079Z,38.07
2023-02-22T22:16:21.890Z,38.16
2023-02-22T22:19:01.500Z,38.24
2023-02-22T22:21:40.150Z,38.36
2023-02-22T22:24:13.671Z,38.40
2023-02-22T22:26:46.222Z,38.28
2023-02-22T22:29:20.581Z,38.28
2023-02-22T22:32:07.510Z,38.28
2023-02-22T22:34:40.140Z,38.36
2023-02-22T22:37:13.246Z,38.36
2023-02-22T22:39:45.766Z,38.40
2023-02-22T22:42:17.911Z,38.53
2023-02-22T22:44:52.104Z,38.53
2023-02-22T22:47:23.981Z,38.55
2023-02-22T22:50:13.496Z,38.53
2023-02-22T22:52:48.316Z,38.52
2023-02-22T22:55:21.791Z,38.53
2023-02-22T22:57:53.796Z,39.93
2023-02-22T23:00:48.053Z,39.02
2023-02-22T23:03:20.168Z,38.75
2023-02-22T23:05:52.903Z,38.57
2023-02-22T23:08:36.987Z,38.45
2023-02-22T23:11:13.230Z,38.52
2023-02-22T23:13:44.814Z,38.36
2023-02-22T23:16:16.791Z,38.26
2023-02-22T23:23:37.633Z,38.94
2023-02-22T23:26:20.692Z,38.60
2023-02-22T23:28:54.195Z,38.55
2023-02-22T23:31:36.999Z,38.45
2023-02-22T23:34:14.202Z,38.41
2023-02-22T23:36:52.965Z,38.44
2023-02-22T23:39:25.943Z,38.44
2023-02-22T23:42:09.875Z,38.41
2023-02-22T23:44:44.699Z,38.43
2023-02-22T23:47:19.969Z,38.35
2023-02-22T23:50:21.949Z,38.86
2023-02-22T23:53:12.703Z,39.44
2023-02-22T23:55:50.900Z,39.79
2023-02-22T23:58:40.516Z,40.06
